Old Washington, OH (43768)

9:38 AM EST on December 21, 2014 (GMT -0500)
Downtown Cambridge | Change Station
CLOSE
Current Station
Personal Weather Station
Location: Cambridge, OH
Elevation: 876 ft
Nearby Weather Stations

Elev 876 ft 40.03 °N, 81.59 °W | Updated 4 seconds ago

Overcast
Overcast
32.0 °F
Feels Like 32 °F
N
0.0
Wind Variable Wind from North
Gusts 0.0 mph

Today
High -- | Low -- °F
--% Chance of Precip.
Yesterday
High -- | Low -- °F
Precip. -- in
7:44 AM 5:03 PM
Waning Crescent, 0% visible
Pressure 30.35 in
Visibility 4.0 miles
Clouds Overcast 2400 ft
Windchill 32 °F
Dew Point 26 °F
Humidity 79%
Rainfall 0.00 in
Snow Depth Not available.
UV 0 out of 12
Pollen .10 out of 12
Air Quality Not available.
Flu Activity Not available.
METAR KZZV 211353Z AUTO 00000KT 4SM BR OVC024 M02/M04 A3032 RMK AO2 SLP276 T10171039

More Conditions Fewer Conditions

Pressure 30.35 in
Visibility 4.0 miles
Clouds Overcast 2400 ft
Windchill 32 °F
Dew Point 26 °F
Humidity 79%
Rainfall 0.00 in
Snow Depth Not available.
UV 0 out of 12
Pollen .10 out of 12
Air Quality Not available.
Flu Activity Not available.
METAR KZZV 211353Z AUTO 00000KT 4SM BR OVC024 M02/M04 A3032 RMK AO2 SLP276 T10171039

More Conditions Fewer Conditions

10-Day Weather Forecast

Almanac

Astronomy

Dec. 21, 2014 Rise Set
Actual Time
Civil Twilight
Nautical Twilight
Astronomical Twilight
Moon
Length of Visible Light
Length of Day
Tomorrow will be .
, % of the Moon is Illuminated

Today's Extremes

State Highs State Lows

Community

WunderPhotos

Upload Photos

1,779,395 photos uploaded!

WunderBlogs® & News

Nearby

Air Quality

  Air Quality AQ Index Pollutant
Not available.

Snow Depth

Station Depth Elevation

Earthquake Activity

City Distance Mag. Time & Date
Minimum magnitude displayed is 2.5.

Coastal Water Temperatures

Place Temperature

Nearby Weather Stations